Manter, KS (67862)

10:06 AM CST on March 05, 2015 (GMT -0600)
8S of Johnson | Change Station
CLOSE
Current Station
Personal Weather Station
Location: Johnson City, KS
Elevation: 3369 ft
Nearby Weather Stations

Elev 3369 ft 37.45 °N, 101.76 °W | Updated 18 seconds ago

Clear
Clear
31.9 °F
Feels Like 25 °F
N
8.0
Wind Variable Wind from West
Gusts 9.0 mph

Today
High -- | Low -- °F
--% Chance of Precip.
Yesterday
High -- | Low -- °F
Precip. -- in
7:13 AM 6:45 PM
Full, 100% visible
Pressure 30.46 in
Visibility 10.0 miles
Clouds Clear
Windchill 25 °F
Dew Point 23 °F
Humidity 69%
Rainfall in
Snow Depth Not available.
UV 6.1 out of 12
Pollen 1.50 out of 12
Air Quality Not available.
Flu Activity Not available.
METAR KLAA 051553Z AUTO 27011KT 10SM CLR M04/M11 A3035 RMK AO2 SLP315 T10441106

More Conditions Fewer Conditions

Pressure 30.46 in
Visibility 10.0 miles
Clouds Clear
Windchill 25 °F
Dew Point 23 °F
Humidity 69%
Rainfall in
Snow Depth Not available.
UV 6.1 out of 12
Pollen 1.50 out of 12
Air Quality Not available.
Flu Activity Not available.
METAR KLAA 051553Z AUTO 27011KT 10SM CLR M04/M11 A3035 RMK AO2 SLP315 T10441106

More Conditions Fewer Conditions

10-Day Weather Forecast

Almanac

Astronomy

Mar. 05, 2015 Rise Set
Actual Time
Civil Twilight
Nautical Twilight
Astronomical Twilight
Moon
Length of Visible Light
Length of Day
Tomorrow will be .
, % of the Moon is Illuminated

Today's Extremes

State Highs State Lows

Community

WunderPhotos

Upload Photos

1,802,833 photos uploaded!

WunderBlogs® & News

Nearby

Air Quality

  Air Quality AQ Index Pollutant
Not available.

Snow Depth

Station Depth Elevation

Earthquake Activity

City Distance Mag. Time & Date
Minimum magnitude displayed is 2.5.

Coastal Water Temperatures

Place Temperature

Nearby Weather Stations